sensor_id;sensor_type;location;lat;lon;timestamp;pressure;altitude;pressure_sealevel;temperature;humidity
25080;BME280;13071;48.868;9.996;2023-04-07T00:00:02;96573.63;;;6.46;76.50
25080;BME280;13071;48.868;9.996;2023-04-07T00:02:30;96575.56;;;6.32;74.54
25080;BME280;13071;48.868;9.996;2023-04-07T00:04:57;96576.63;;;6.45;74.66
25080;BME280;13071;48.868;9.996;2023-04-07T00:07:25;96574.41;;;6.25;75.46
25080;BME280;13071;48.868;9.996;2023-04-07T00:09:52;96578.38;;;6.27;76.45
25080;BME280;13071;48.868;9.996;2023-04-07T00:12:18;96572.88;;;6.32;77.61
25080;BME280;13071;48.868;9.996;2023-04-07T00:14:45;96573.09;;;6.36;77.79
25080;BME280;13071;48.868;9.996;2023-04-07T00:17:12;96581.38;;;6.26;78.58
25080;BME280;13071;48.868;9.996;2023-04-07T00:19:38;96582.09;;;6.04;79.69
25080;BME280;13071;48.868;9.996;2023-04-07T00:22:05;96576.69;;;6.18;80.19
25080;BME280;13071;48.868;9.996;2023-04-07T00:24:33;96577.03;;;6.16;80.61
25080;BME280;13071;48.868;9.996;2023-04-07T00:26:59;96575.09;;;6.30;81.67
25080;BME280;13071;48.868;9.996;2023-04-07T00:29:26;96567.31;;;6.29;81.88
25080;BME280;13071;48.868;9.996;2023-04-07T00:31:53;96563.34;;;6.26;82.51
25080;BME280;13071;48.868;9.996;2023-04-07T00:34:20;96567.09;;;6.03;83.51
25080;BME280;13071;48.868;9.996;2023-04-07T00:36:46;96557.34;;;5.93;84.28
25080;BME280;13071;48.868;9.996;2023-04-07T00:39:16;96560.44;;;6.00;84.69
25080;BME280;13071;48.868;9.996;2023-04-07T00:41:44;96554.38;;;5.95;84.41
25080;BME280;13071;48.868;9.996;2023-04-07T00:44:11;96562.44;;;5.81;85.24
25080;BME280;13071;48.868;9.996;2023-04-07T00:46:38;96553.19;;;5.60;85.99
25080;BME280;13071;48.868;9.996;2023-04-07T00:49:05;96556.25;;;5.53;86.66
25080;BME280;13071;48.868;9.996;2023-04-07T00:51:32;96547.34;;;5.31;88.98
25080;BME280;13071;48.868;9.996;2023-04-07T00:53:58;96542.25;;;5.29;89.98
25080;BME280;13071;48.868;9.996;2023-04-07T00:56:26;96543.34;;;5.14;90.45
25080;BME280;13071;48.868;9.996;2023-04-07T00:58:54;96537.41;;;5.31;89.70
25080;BME280;13071;48.868;9.996;2023-04-07T01:01:23;96537.97;;;5.28;89.96
25080;BME280;13071;48.868;9.996;2023-04-07T01:03:53;96530.63;;;5.06;92.51
25080;BME280;13071;48.868;9.996;2023-04-07T01:06:24;96534.19;;;5.15;92.85
25080;BME280;13071;48.868;9.996;2023-04-07T01:08:55;96527.34;;;5.23;91.64
25080;BME280;13071;48.868;9.996;2023-04-07T01:11:24;96526.94;;;5.30;91.03
25080;BME280;13071;48.868;9.996;2023-04-07T01:13:56;96524.56;;;5.28;91.15
25080;BME280;13071;48.868;9.996;2023-04-07T01:16:26;96514.72;;;5.23;91.52
25080;BME280;13071;48.868;9.996;2023-04-07T01:19:01;96518.72;;;5.26;91.80
25080;BME280;13071;48.868;9.996;2023-04-07T01:21:32;96515.41;;;5.29;92.22
25080;BME280;13071;48.868;9.996;2023-04-07T01:24:10;96509.78;;;5.17;93.28
25080;BME280;13071;48.868;9.996;2023-04-07T01:26:41;96512.53;;;5.26;92.44
25080;BME280;13071;48.868;9.996;2023-04-07T01:29:34;96508.88;;;5.35;91.81
25080;BME280;13071;48.868;9.996;2023-04-07T01:32:05;96501.31;;;5.23;91.53
25080;BME280;13071;48.868;9.996;2023-04-07T01:34:36;96494.06;;;5.24;91.62
25080;BME280;13071;48.868;9.996;2023-04-07T01:37:03;96497.25;;;5.12;93.02
25080;BME280;13071;48.868;9.996;2023-04-07T01:39:32;96488.41;;;5.26;92.83
25080;BME280;13071;48.868;9.996;2023-04-07T01:42:00;96484.13;;;4.97;94.71
25080;BME280;13071;48.868;9.996;2023-04-07T01:44:27;96477.66;;;4.98;94.69
25080;BME280;13071;48.868;9.996;2023-04-07T01:46:57;96474.56;;;4.77;96.10
25080;BME280;13071;48.868;9.996;2023-04-07T01:49:25;96478.00;;;4.64;96.85
25080;BME280;13071;48.868;9.996;2023-04-07T01:51:53;96477.13;;;4.69;97.51
25080;BME280;13071;48.868;9.996;2023-04-07T01:54:20;96472.69;;;4.78;96.78
25080;BME280;13071;48.868;9.996;2023-04-07T01:56:47;96471.66;;;4.74;97.53
25080;BME280;13071;48.868;9.996;2023-04-07T01:59:14;96473.16;;;4.66;97.38
25080;BME280;13071;48.868;9.996;2023-04-07T02:01:41;96465.03;;;4.71;97.55
25080;BME280;13071;48.868;9.996;2023-04-07T02:04:11;96472.06;;;4.67;98.15
25080;BME280;13071;48.868;9.996;2023-04-07T02:06:45;96467.09;;;4.74;98.02
25080;BME280;13071;48.868;9.996;2023-04-07T02:09:15;96457.97;;;4.75;97.61
25080;BME280;13071;48.868;9.996;2023-04-07T02:11:43;96459.75;;;4.66;99.10
25080;BME280;13071;48.868;9.996;2023-04-07T02:14:11;96460.34;;;4.63;99.60
25080;BME280;13071;48.868;9.996;2023-04-07T02:16:40;96464.22;;;4.71;98.93
25080;BME280;13071;48.868;9.996;2023-04-07T02:19:09;96458.97;;;4.66;99.63
25080;BME280;13071;48.868;9.996;2023-04-07T02:21:35;96458.66;;;4.54;99.94
25080;BME280;13071;48.868;9.996;2023-04-07T02:24:05;96456.38;;;4.61;100.00
25080;BME280;13071;48.868;9.996;2023-04-07T02:26:33;96453.06;;;4.50;100.00
25080;BME280;13071;48.868;9.996;2023-04-07T02:29:00;96450.78;;;4.44;100.00
25080;BME280;13071;48.868;9.996;2023-04-07T02:31:26;96449.31;;;4.51;100.00
25080;BME280;13071;48.868;9.996;2023-04-07T02:33:53;96449.28;;;4.38;100.00
25080;BME280;13071;48.868;9.996;2023-04-07T02:36:21;96448.56;;;4.32;100.00
25080;BME280;13071;48.868;9.996;2023-04-07T02:38:48;96439.94;;;4.35;100.00
25080;BME280;13071;48.868;9.996;2023-04-07T02:41:14;96439.13;;;4.34;100.00
25080;BME280;13071;48.868;9.996;2023-04-07T02:43:41;96435.47;;;4.44;100.00
25080;BME280;13071;48.868;9.996;2023-04-07T02:46:07;96432.94;;;4.53;100.00
25080;BME280;13071;48.868;9.996;2023-04-07T02:48:34;96433.22;;;4.51;100.00
25080;BME280;13071;48.868;9.996;2023-04-07T02:51:00;96425.81;;;4.62;100.00
25080;BME280;13071;48.868;9.996;2023-04-07T02:53:28;96425.09;;;4.43;100.00
25080;BME280;13071;48.868;9.996;2023-04-07T02:55:55;96428.25;;;4.45;100.00
25080;BME280;13071;48.868;9.996;2023-04-07T02:58:22;96426.88;;;4.47;100.00
25080;BME280;13071;48.868;9.996;2023-04-07T03:00:48;96418.47;;;4.54;100.00
25080;BME280;13071;48.868;9.996;2023-04-07T03:03:15;96427.41;;;4.63;99.92
25080;BME280;13071;48.868;9.996;2023-04-07T03:05:41;96425.00;;;4.48;100.00
25080;BME280;13071;48.868;9.996;2023-04-07T03:08:08;96415.19;;;4.57;100.00
25080;BME280;13071;48.868;9.996;2023-04-07T03:10:36;96408.91;;;4.75;99.37
25080;BME280;13071;48.868;9.996;2023-04-07T03:13:02;96411.41;;;4.71;99.19
25080;BME280;13071;48.868;9.996;2023-04-07T03:15:29;96416.25;;;4.56;100.00
25080;BME280;13071;48.868;9.996;2023-04-07T03:17:55;96405.06;;;4.67;99.75
25080;BME280;13071;48.868;9.996;2023-04-07T03:20:22;96404.75;;;4.69;99.67
25080;BME280;13071;48.868;9.996;2023-04-07T03:22:49;96408.53;;;4.68;99.98
25080;BME280;13071;48.868;9.996;2023-04-07T03:25:15;96401.06;;;4.65;100.00
25080;BME280;13071;48.868;9.996;2023-04-07T03:27:43;96394.03;;;4.55;100.00
25080;BME280;13071;48.868;9.996;2023-04-07T03:30:10;96398.50;;;4.60;100.00
25080;BME280;13071;48.868;9.996;2023-04-07T03:32:37;96394.03;;;4.55;100.00
25080;BME280;13071;48.868;9.996;2023-04-07T03:35:04;96398.09;;;4.66;100.00
25080;BME280;13071;48.868;9.996;2023-04-07T03:37:31;96392.34;;;4.59;100.00
25080;BME280;13071;48.868;9.996;2023-04-07T03:39:57;96390.56;;;4.68;100.00
25080;BME280;13071;48.868;9.996;2023-04-07T03:42:24;96390.16;;;4.61;100.00
25080;BME280;13071;48.868;9.996;2023-04-07T03:44:52;96384.69;;;4.53;100.00
25080;BME280;13071;48.868;9.996;2023-04-07T03:47:18;96388.56;;;4.47;100.00
25080;BME280;13071;48.868;9.996;2023-04-07T03:49:45;96383.81;;;4.44;100.00
25080;BME280;13071;48.868;9.996;2023-04-07T03:52:12;96389.34;;;4.47;100.00
25080;BME280;13071;48.868;9.996;2023-04-07T03:54:39;96388.38;;;4.57;100.00
25080;BME280;13071;48.868;9.996;2023-04-07T03:57:06;96380.44;;;4.65;100.00
25080;BME280;13071;48.868;9.996;2023-04-07T03:59:33;96378.44;;;4.57;100.00
25080;BME280;13071;48.868;9.996;2023-04-07T04:02:01;96376.38;;;4.68;100.00
25080;BME280;13071;48.868;9.996;2023-04-07T04:04:28;96378.72;;;4.69;100.00
25080;BME280;13071;48.868;9.996;2023-04-07T04:06:54;96365.16;;;4.66;100.00
25080;BME280;13071;48.868;9.996;2023-04-07T04:09:21;96369.50;;;4.62;100.00
25080;BME280;13071;48.868;9.996;2023-04-07T04:11:48;96371.19;;;4.85;100.00
25080;BME280;13071;48.868;9.996;2023-04-07T04:14:14;96367.53;;;4.54;100.00
25080;BME280;13071;48.868;9.996;2023-04-07T04:16:41;96365.63;;;4.54;100.00
25080;BME280;13071;48.868;9.996;2023-04-07T04:19:09;96369.50;;;4.62;100.00
25080;BME280;13071;48.868;9.996;2023-04-07T04:21:36;96359.69;;;4.57;100.00
25080;BME280;13071;48.868;9.996;2023-04-07T04:24:03;96364.84;;;4.54;100.00
25080;BME280;13071;48.868;9.996;2023-04-07T04:26:29;96367.81;;;4.52;100.00
25080;BME280;13071;48.868;9.996;2023-04-07T04:28:56;96369.91;;;4.55;100.00
25080;BME280;13071;48.868;9.996;2023-04-07T04:31:22;96369.00;;;4.60;100.00
25080;BME280;13071;48.868;9.996;2023-04-07T04:33:49;96359.28;;;4.64;100.00
25080;BME280;13071;48.868;9.996;2023-04-07T04:36:18;96357.28;;;4.69;100.00
25080;BME280;13071;48.868;9.996;2023-04-07T04:38:44;96359.28;;;4.77;100.00
25080;BME280;13071;48.868;9.996;2023-04-07T04:41:11;96366.72;;;4.81;100.00
25080;BME280;13071;48.868;9.996;2023-04-07T04:43:37;96367.22;;;4.83;100.00
25080;BME280;13071;48.868;9.996;2023-04-07T04:46:04;96366.41;;;4.96;100.00
25080;BME280;13071;48.868;9.996;2023-04-07T04:48:31;96371.88;;;4.91;100.00
25080;BME280;13071;48.868;9.996;2023-04-07T04:50:57;96369.91;;;4.96;100.00
25080;BME280;13071;48.868;9.996;2023-04-07T04:53:25;96369.59;;;4.98;100.00
25080;BME280;13071;48.868;9.996;2023-04-07T04:55:52;96370.25;;;5.03;100.00
25080;BME280;13071;48.868;9.996;2023-04-07T04:58:19;96372.25;;;5.11;100.00
25080;BME280;13071;48.868;9.996;2023-04-07T05:00:46;96373.53;;;5.14;100.00
25080;BME280;13071;48.868;9.996;2023-04-07T05:03:12;96378.09;;;5.27;99.96
25080;BME280;13071;48.868;9.996;2023-04-07T05:05:39;96379.75;;;5.37;98.40
25080;BME280;13071;48.868;9.996;2023-04-07T05:08:05;96375.53;;;5.22;98.84
25080;BME280;13071;48.868;9.996;2023-04-07T05:10:37;96375.81;;;5.20;99.20
25080;BME280;13071;48.868;9.996;2023-04-07T05:13:03;96374.03;;;5.16;99.89
25080;BME280;13071;48.868;9.996;2023-04-07T05:15:30;96376.44;;;5.17;100.00
25080;BME280;13071;48.868;9.996;2023-04-07T05:17:56;96376.31;;;5.22;100.00
25080;BME280;13071;48.868;9.996;2023-04-07T05:20:23;96379.28;;;5.21;100.00
25080;BME280;13071;48.868;9.996;2023-04-07T05:22:50;96378.09;;;5.27;100.00
25080;BME280;13071;48.868;9.996;2023-04-07T05:25:16;96379.28;;;5.21;100.00
25080;BME280;13071;48.868;9.996;2023-04-07T05:27:44;96370.44;;;5.20;100.00
25080;BME280;13071;48.868;9.996;2023-04-07T05:30:11;96380.38;;;5.20;100.00
25080;BME280;13071;48.868;9.996;2023-04-07T05:32:38;96371.72;;;5.23;100.00
25080;BME280;13071;48.868;9.996;2023-04-07T05:35:05;96365.81;;;5.12;100.00
25080;BME280;13071;48.868;9.996;2023-04-07T05:37:32;96378.41;;;5.12;100.00
25080;BME280;13071;48.868;9.996;2023-04-07T05:39:59;96376.22;;;5.14;100.00
25080;BME280;13071;48.868;9.996;2023-04-07T05:42:25;96373.63;;;5.09;100.00
25080;BME280;13071;48.868;9.996;2023-04-07T05:44:53;96374.53;;;5.18;100.00
25080;BME280;13071;48.868;9.996;2023-04-07T05:47:20;96370.97;;;4.95;100.00
25080;BME280;13071;48.868;9.996;2023-04-07T05:49:46;96365.69;;;5.04;100.00
25080;BME280;13071;48.868;9.996;2023-04-07T05:52:13;96361.06;;;4.96;100.00
25080;BME280;13071;48.868;9.996;2023-04-07T05:54:40;96367.69;;;4.98;100.00
25080;BME280;13071;48.868;9.996;2023-04-07T05:57:06;96368.16;;;5.14;100.00
25080;BME280;13071;48.868;9.996;2023-04-07T05:59:33;96370.50;;;4.93;100.00
25080;BME280;13071;48.868;9.996;2023-04-07T06:02:02;96366.81;;;5.03;100.00
25080;BME280;13071;48.868;9.996;2023-04-07T06:04:29;96371.53;;;5.19;100.00
25080;BME280;13071;48.868;9.996;2023-04-07T06:06:55;96375.22;;;5.10;100.00
25080;BME280;13071;48.868;9.996;2023-04-07T06:09:22;96361.25;;;5.13;100.00
25080;BME280;13071;48.868;9.996;2023-04-07T06:11:49;96364.91;;;5.17;100.00
25080;BME280;13071;48.868;9.996;2023-04-07T06:14:16;96364.69;;;5.13;100.00
25080;BME280;13071;48.868;9.996;2023-04-07T06:16:43;96361.78;;;5.23;100.00
25080;BME280;13071;48.868;9.996;2023-04-07T06:19:11;96363.56;;;5.28;100.00
25080;BME280;13071;48.868;9.996;2023-04-07T06:21:37;96360.91;;;5.14;100.00
25080;BME280;13071;48.868;9.996;2023-04-07T06:24:05;96372.22;;;5.25;100.00
25080;BME280;13071;48.868;9.996;2023-04-07T06:26:31;96372.84;;;5.22;100.00
25080;BME280;13071;48.868;9.996;2023-04-07T06:28:58;96368.28;;;5.22;100.00
25080;BME280;13071;48.868;9.996;2023-04-07T06:31:25;96373.75;;;5.17;100.00
25080;BME280;13071;48.868;9.996;2023-04-07T06:33:52;96374.63;;;5.27;100.00
25080;BME280;13071;48.868;9.996;2023-04-07T06:36:20;96376.09;;;5.33;100.00
25080;BME280;13071;48.868;9.996;2023-04-07T06:38:47;96378.34;;;5.39;100.00
25080;BME280;13071;48.868;9.996;2023-04-07T06:41:14;96367.31;;;5.41;100.00
25080;BME280;13071;48.868;9.996;2023-04-07T06:43:42;96367.88;;;5.51;100.00
25080;BME280;13071;48.868;9.996;2023-04-07T06:46:08;96366.81;;;5.52;100.00
25080;BME280;13071;48.868;9.996;2023-04-07T06:48:35;96374.75;;;5.57;100.00
25080;BME280;13071;48.868;9.996;2023-04-07T06:51:02;96374.91;;;5.61;100.00
25080;BME280;13071;48.868;9.996;2023-04-07T06:53:30;96367.84;;;5.65;100.00
25080;BME280;13071;48.868;9.996;2023-04-07T06:56:04;96368.81;;;5.69;100.00
25080;BME280;13071;48.868;9.996;2023-04-07T06:58:31;96368.22;;;5.72;100.00
25080;BME280;13071;48.868;9.996;2023-04-07T07:00:57;96372.78;;;5.72;100.00
25080;BME280;13071;48.868;9.996;2023-04-07T07:03:24;96359.84;;;5.74;100.00
25080;BME280;13071;48.868;9.996;2023-04-07T07:05:52;96367.47;;;5.80;100.00
25080;BME280;13071;48.868;9.996;2023-04-07T07:08:20;96369.06;;;5.81;100.00
25080;BME280;13071;48.868;9.996;2023-04-07T07:10:48;96373.03;;;5.84;100.00
25080;BME280;13071;48.868;9.996;2023-04-07T07:13:15;96374.63;;;5.85;100.00
25080;BME280;13071;48.868;9.996;2023-04-07T07:15:41;96373.53;;;5.86;100.00
25080;BME280;13071;48.868;9.996;2023-04-07T07:18:08;96374.41;;;5.95;100.00
25080;BME280;13071;48.868;9.996;2023-04-07T07:20:35;96370.28;;;5.97;100.00
25080;BME280;13071;48.868;9.996;2023-04-07T07:23:01;96377.00;;;6.08;100.00
25080;BME280;13071;48.868;9.996;2023-04-07T07:25:28;96378.78;;;6.13;100.00
25080;BME280;13071;48.868;9.996;2023-04-07T07:27:56;96376.59;;;6.15;100.00
25080;BME280;13071;48.868;9.996;2023-04-07T07:30:23;96374.25;;;6.22;100.00
25080;BME280;13071;48.868;9.996;2023-04-07T07:32:50;96377.78;;;6.31;100.00
25080;BME280;13071;48.868;9.996;2023-04-07T07:35:18;96374.31;;;6.31;100.00
25080;BME280;13071;48.868;9.996;2023-04-07T07:37:45;96377.50;;;6.41;100.00
25080;BME280;13071;48.868;9.996;2023-04-07T07:40:11;96380.06;;;6.46;99.61
25080;BME280;13071;48.868;9.996;2023-04-07T07:42:38;96378.16;;;6.47;99.20
25080;BME280;13071;48.868;9.996;2023-04-07T07:45:07;96379.16;;;6.51;99.49
25080;BME280;13071;48.868;9.996;2023-04-07T07:47:33;96374.69;;;6.46;99.34
25080;BME280;13071;48.868;9.996;2023-04-07T07:50:02;96381.06;;;6.59;100.00
25080;BME280;13071;48.868;9.996;2023-04-07T07:52:28;96380.16;;;6.64;99.79
25080;BME280;13071;48.868;9.996;2023-04-07T07:54:55;96386.19;;;6.69;99.25
25080;BME280;13071;48.868;9.996;2023-04-07T07:57:22;96384.47;;;6.82;99.33
25080;BME280;13071;48.868;9.996;2023-04-07T07:59:48;96385.00;;;6.92;100.00
25080;BME280;13071;48.868;9.996;2023-04-07T08:02:16;96382.78;;;6.94;98.84
25080;BME280;13071;48.868;9.996;2023-04-07T08:04:43;96381.84;;;6.99;97.88
25080;BME280;13071;48.868;9.996;2023-04-07T08:07:10;96382.38;;;7.10;97.76
25080;BME280;13071;48.868;9.996;2023-04-07T08:09:37;96385.34;;;7.00;97.03
25080;BME280;13071;48.868;9.996;2023-04-07T08:12:03;96386.31;;;7.04;96.97
25080;BME280;13071;48.868;9.996;2023-04-07T08:14:30;96388.53;;;7.10;96.29
25080;BME280;13071;48.868;9.996;2023-04-07T08:16:57;96390.75;;;7.08;95.33
25080;BME280;13071;48.868;9.996;2023-04-07T08:19:25;96389.81;;;7.13;95.22
25080;BME280;13071;48.868;9.996;2023-04-07T08:21:51;96383.78;;;7.16;95.08
25080;BME280;13071;48.868;9.996;2023-04-07T08:24:18;96388.72;;;7.22;95.76
25080;BME280;13071;48.868;9.996;2023-04-07T08:26:44;96396.50;;;7.32;95.13
25080;BME280;13071;48.868;9.996;2023-04-07T08:29:11;96387.47;;;7.28;95.88
25080;BME280;13071;48.868;9.996;2023-04-07T08:31:37;96384.47;;;7.30;96.49
25080;BME280;13071;48.868;9.996;2023-04-07T08:34:04;96389.81;;;7.21;97.26
25080;BME280;13071;48.868;9.996;2023-04-07T08:36:32;96388.41;;;7.32;97.16
25080;BME280;13071;48.868;9.996;2023-04-07T08:38:59;96392.25;;;7.49;96.54
25080;BME280;13071;48.868;9.996;2023-04-07T08:41:29;96391.44;;;7.57;97.03
25080;BME280;13071;48.868;9.996;2023-04-07T08:44:00;96387.66;;;7.66;95.70
25080;BME280;13071;48.868;9.996;2023-04-07T08:46:27;96386.88;;;7.74;94.55
25080;BME280;13071;48.868;9.996;2023-04-07T08:48:55;96389.88;;;7.81;94.05
25080;BME280;13071;48.868;9.996;2023-04-07T08:51:26;96392.09;;;7.97;93.19
25080;BME280;13071;48.868;9.996;2023-04-07T08:54:01;96389.84;;;8.07;91.92
25080;BME280;13071;48.868;9.996;2023-04-07T08:56:31;96391.63;;;8.03;90.49
25080;BME280;13071;48.868;9.996;2023-04-07T08:58:59;96386.69;;;7.97;90.10
25080;BME280;13071;48.868;9.996;2023-04-07T09:01:26;96394.16;;;8.08;89.58
25080;BME280;13071;48.868;9.996;2023-04-07T09:03:53;96389.19;;;8.19;89.51
25080;BME280;13071;48.868;9.996;2023-04-07T09:06:22;96391.28;;;8.22;90.88
25080;BME280;13071;48.868;9.996;2023-04-07T09:08:49;96385.06;;;8.21;90.48
25080;BME280;13071;48.868;9.996;2023-04-07T09:11:17;96395.88;;;8.30;91.37
25080;BME280;13071;48.868;9.996;2023-04-07T09:13:43;96395.38;;;8.28;90.97
25080;BME280;13071;48.868;9.996;2023-04-07T09:16:10;96395.38;;;8.37;88.91
25080;BME280;13071;48.868;9.996;2023-04-07T09:18:38;96406.19;;;8.37;90.83
25080;BME280;13071;48.868;9.996;2023-04-07T09:21:05;96402.47;;;8.50;91.33
25080;BME280;13071;48.868;9.996;2023-04-07T09:23:33;96393.59;;;8.49;88.44
25080;BME280;13071;48.868;9.996;2023-04-07T09:26:18;96391.53;;;8.55;86.29
25080;BME280;13071;48.868;9.996;2023-04-07T09:28:47;96396.53;;;8.74;86.34
25080;BME280;13071;48.868;9.996;2023-04-07T09:31:14;96395.38;;;8.83;84.91
25080;BME280;13071;48.868;9.996;2023-04-07T09:33:41;96398.38;;;8.90;83.26
25080;BME280;13071;48.868;9.996;2023-04-07T09:36:08;96390.41;;;8.94;85.85
25080;BME280;13071;48.868;9.996;2023-04-07T09:38:35;96396.06;;;9.09;84.58
25080;BME280;13071;48.868;9.996;2023-04-07T09:41:05;96399.28;;;9.32;84.59
25080;BME280;13071;48.868;9.996;2023-04-07T09:43:35;96398.69;;;8.97;85.43
25080;BME280;13071;48.868;9.996;2023-04-07T09:46:09;96402.31;;;9.31;85.27
25080;BME280;13071;48.868;9.996;2023-04-07T09:48:36;96400.34;;;9.40;83.59
25080;BME280;13071;48.868;9.996;2023-04-07T09:51:05;96398.38;;;9.49;80.59
25080;BME280;13071;48.868;9.996;2023-04-07T09:53:43;96387.44;;;9.45;76.95
25080;BME280;13071;48.868;9.996;2023-04-07T09:56:10;96397.59;;;9.48;79.15
25080;BME280;13071;48.868;9.996;2023-04-07T09:58:39;96393.88;;;9.53;79.62
25080;BME280;13071;48.868;9.996;2023-04-07T10:01:06;96404.19;;;9.80;78.52
25080;BME280;13071;48.868;9.996;2023-04-07T10:03:34;96408.75;;;9.88;77.80
25080;BME280;13071;48.868;9.996;2023-04-07T10:06:00;96403.00;;;9.90;78.53
25080;BME280;13071;48.868;9.996;2023-04-07T10:08:28;96408.59;;;9.64;81.83
25080;BME280;13071;48.868;9.996;2023-04-07T10:10:57;96411.91;;;8.82;82.15
25080;BME280;13071;48.868;9.996;2023-04-07T10:13:24;96406.41;;;9.37;81.29
25080;BME280;13071;48.868;9.996;2023-04-07T10:15:52;96399.75;;;9.34;80.85
25080;BME280;13071;48.868;9.996;2023-04-07T10:18:20;96403.88;;;9.61;79.82
25080;BME280;13071;48.868;9.996;2023-04-07T10:20:48;96404.16;;;9.39;79.68
25080;BME280;13071;48.868;9.996;2023-04-07T10:23:20;96410.00;;;9.91;79.92
25080;BME280;13071;48.868;9.996;2023-04-07T10:25:49;96406.06;;;9.38;82.10
25080;BME280;13071;48.868;9.996;2023-04-07T10:28:20;96413.06;;;9.10;81.96
25080;BME280;13071;48.868;9.996;2023-04-07T10:30:48;96410.72;;;9.29;85.57
25080;BME280;13071;48.868;9.996;2023-04-07T10:33:16;96409.63;;;9.30;82.68
25080;BME280;13071;48.868;9.996;2023-04-07T10:36:03;96410.63;;;8.88;84.49
25080;BME280;13071;48.868;9.996;2023-04-07T10:38:30;96413.34;;;9.17;81.17
25080;BME280;13071;48.868;9.996;2023-04-07T10:40:57;96411.22;;;9.31;82.81
25080;BME280;13071;48.868;9.996;2023-04-07T10:43:37;96412.56;;;9.08;82.45
25080;BME280;13071;48.868;9.996;2023-04-07T10:46:05;96412.50;;;9.25;81.79
25080;BME280;13071;48.868;9.996;2023-04-07T10:48:32;96412.25;;;9.09;83.24
25080;BME280;13071;48.868;9.996;2023-04-07T10:51:13;96412.13;;;9.06;83.88
25080;BME280;13071;48.868;9.996;2023-04-07T10:57:08;96420.31;;;9.18;84.07
25080;BME280;13071;48.868;9.996;2023-04-07T10:59:37;96416.19;;;9.21;83.15
25080;BME280;13071;48.868;9.996;2023-04-07T11:02:31;96417.72;;;9.80;82.80
25080;BME280;13071;48.868;9.996;2023-04-07T11:05:00;96414.72;;;9.52;81.21
25080;BME280;13071;48.868;9.996;2023-04-07T11:07:47;96423.03;;;9.68;81.08
25080;BME280;13071;48.868;9.996;2023-04-07T11:10:14;96412.75;;;10.03;80.04
25080;BME280;13071;48.868;9.996;2023-04-07T11:12:43;96421.44;;;9.67;79.97
25080;BME280;13071;48.868;9.996;2023-04-07T11:15:17;96415.88;;;9.43;81.83
25080;BME280;13071;48.868;9.996;2023-04-07T11:17:44;96415.13;;;9.84;81.43
25080;BME280;13071;48.868;9.996;2023-04-07T11:20:12;96411.97;;;9.61;82.51
25080;BME280;13071;48.868;9.996;2023-04-07T11:22:38;96409.38;;;10.27;81.90
25080;BME280;13071;48.868;9.996;2023-04-07T11:25:19;96415.47;;;10.03;80.17
25080;BME280;13071;48.868;9.996;2023-04-07T11:27:46;96410.97;;;10.28;79.65
25080;BME280;13071;48.868;9.996;2023-04-07T11:30:14;96412.50;;;10.95;79.75
25080;BME280;13071;48.868;9.996;2023-04-07T11:32:47;96404.03;;;11.08;74.90
25080;BME280;13071;48.868;9.996;2023-04-07T11:35:15;96398.28;;;10.98;75.45
25080;BME280;13071;48.868;9.996;2023-04-07T11:37:41;96405.28;;;11.23;77.45
25080;BME280;13071;48.868;9.996;2023-04-07T11:40:09;96410.97;;;10.07;77.21
25080;BME280;13071;48.868;9.996;2023-04-07T11:42:38;96407.28;;;9.70;77.07
25080;BME280;13071;48.868;9.996;2023-04-07T11:45:15;96410.84;;;10.24;77.48
25080;BME280;13071;48.868;9.996;2023-04-07T11:47:42;96411.44;;;10.30;80.24
25080;BME280;13071;48.868;9.996;2023-04-07T11:50:09;96419.88;;;9.87;79.99
25080;BME280;13071;48.868;9.996;2023-04-07T11:52:44;96413.69;;;10.28;78.66
25080;BME280;13071;48.868;9.996;2023-04-07T11:55:17;96413.44;;;10.66;78.84
25080;BME280;13071;48.868;9.996;2023-04-07T11:57:44;96404.69;;;10.93;74.96
25080;BME280;13071;48.868;9.996;2023-04-07T12:00:12;96409.13;;;11.10;75.72
25080;BME280;13071;48.868;9.996;2023-04-07T12:02:40;96405.84;;;11.16;74.09
25080;BME280;13071;48.868;9.996;2023-04-07T12:05:07;96403.03;;;11.13;76.07
25080;BME280;13071;48.868;9.996;2023-04-07T12:07:34;96402.88;;;11.46;76.10
25080;BME280;13071;48.868;9.996;2023-04-07T12:10:21;96406.50;;;11.38;73.16
25080;BME280;13071;48.868;9.996;2023-04-07T12:12:47;96402.09;;;11.21;72.72
25080;BME280;13071;48.868;9.996;2023-04-07T12:15:14;96407.69;;;10.55;75.40
25080;BME280;13071;48.868;9.996;2023-04-07T12:17:44;96404.72;;;11.30;74.76
25080;BME280;13071;48.868;9.996;2023-04-07T12:20:11;96395.34;;;11.39;74.40
25080;BME280;13071;48.868;9.996;2023-04-07T12:22:37;96396.00;;;10.75;73.48
25080;BME280;13071;48.868;9.996;2023-04-07T12:25:05;96406.25;;;10.70;76.21
25080;BME280;13071;48.868;9.996;2023-04-07T12:27:33;96404.44;;;10.29;76.39
25080;BME280;13071;48.868;9.996;2023-04-07T12:29:59;96399.56;;;10.55;75.64
25080;BME280;13071;48.868;9.996;2023-04-07T12:32:26;96400.66;;;11.23;75.09
25080;BME280;13071;48.868;9.996;2023-04-07T12:34:53;96396.47;;;11.02;75.73
25080;BME280;13071;48.868;9.996;2023-04-07T12:37:19;96398.38;;;11.01;74.53
25080;BME280;13071;48.868;9.996;2023-04-07T12:39:46;96395.44;;;10.82;74.58
25080;BME280;13071;48.868;9.996;2023-04-07T12:42:12;96399.94;;;10.78;76.27
25080;BME280;13071;48.868;9.996;2023-04-07T12:44:41;96401.28;;;10.72;74.27
25080;BME280;13071;48.868;9.996;2023-04-07T12:47:07;96396.50;;;10.57;75.58
25080;BME280;13071;48.868;9.996;2023-04-07T12:49:36;96393.88;;;10.93;74.90
25080;BME280;13071;48.868;9.996;2023-04-07T12:52:03;96390.59;;;11.36;72.35
25080;BME280;13071;48.868;9.996;2023-04-07T12:54:31;96380.63;;;11.77;72.00
25080;BME280;13071;48.868;9.996;2023-04-07T12:57:04;96381.16;;;11.70;71.81
25080;BME280;13071;48.868;9.996;2023-04-07T12:59:31;96380.03;;;11.83;71.09
25080;BME280;13071;48.868;9.996;2023-04-07T13:02:00;96378.06;;;11.96;72.70
25080;BME280;13071;48.868;9.996;2023-04-07T13:04:26;96372.88;;;12.19;71.06
25080;BME280;13071;48.868;9.996;2023-04-07T13:06:54;96373.47;;;12.40;69.68
25080;BME280;13071;48.868;9.996;2023-04-07T13:09:21;96373.81;;;12.38;69.30
25080;BME280;13071;48.868;9.996;2023-04-07T13:11:48;96372.97;;;12.50;69.63